Aurora, New York
Current Conditions -  °F | °C
As of 3:53 PM on Friday 19 Dec 2014 (Local Time) from KPEO Reporting Station
Overcast Overcast  
Wind Chill: -6°   Ceiling: 2000
Heat Index: -2°   Visibility: 10mi
Dew Point: -6°   Wind: 6mph
Humidity: 75%   Direction: 300°WNW
Pressure: 30.15"   Gusts: NA
Location:  42.75°N, 76.7°W
Report Text: KPEO 192053Z AUTO 30005KT 10SM OVC020 M02/M06 A3015 RMK AO2 SLP221 T10221061 53013
Loading
Personal Weather Stations






























Interactive Weather Map New forecast layout! Learn more

10-Day Weather Forecast

Advertisements
Track Severe Weather on mobile